createdAt,value
2023-05-02T00:02:13.388Z,11.80
2023-05-02T00:04:41.563Z,13.70
2023-05-02T00:07:11.764Z,11.80
2023-05-02T00:09:39.706Z,12.90
2023-05-02T00:12:07.664Z,11.80
2023-05-02T00:14:35.514Z,11.80
2023-05-02T00:17:03.498Z,11.80
2023-05-02T00:19:31.384Z,11.80
2023-05-02T00:21:59.240Z,11.70
2023-05-02T00:24:28.479Z,11.70
2023-05-02T00:26:56.314Z,11.70
2023-05-02T00:29:24.219Z,11.70
2023-05-02T00:31:52.055Z,11.70
2023-05-02T00:34:19.973Z,12.90
2023-05-02T00:36:48.845Z,13.00
2023-05-02T00:39:17.059Z,11.70
2023-05-02T00:41:46.249Z,11.60
2023-05-02T00:44:14.137Z,11.70
2023-05-02T00:46:42.167Z,13.00
2023-05-02T00:49:10.051Z,13.60
2023-05-02T00:51:37.972Z,11.60
2023-05-02T00:54:06.771Z,11.60
2023-05-02T00:56:34.696Z,11.50
2023-05-02T00:59:05.115Z,11.50
2023-05-02T01:01:41.180Z,11.30
2023-05-02T01:04:21.778Z,11.40
2023-05-02T01:07:01.070Z,11.40
2023-05-02T01:09:39.076Z,11.40
2023-05-02T01:12:15.270Z,11.40
2023-05-02T01:14:48.208Z,11.30
2023-05-02T01:17:17.903Z,11.80
2023-05-02T01:19:52.196Z,11.30
2023-05-02T01:22:22.077Z,11.40
2023-05-02T01:25:00.423Z,13.40
2023-05-02T01:27:37.777Z,11.20
2023-05-02T01:30:09.289Z,11.20
2023-05-02T01:32:40.774Z,11.20
2023-05-02T01:35:10.156Z,11.10
2023-05-02T01:37:39.078Z,11.10
2023-05-02T01:40:11.264Z,11.00
2023-05-02T01:42:40.336Z,11.00
2023-05-02T01:45:12.050Z,11.00
2023-05-02T01:47:41.660Z,11.00
2023-05-02T01:50:12.959Z,11.00
2023-05-02T01:52:41.817Z,11.00
2023-05-02T01:55:14.889Z,11.00
2023-05-02T01:57:45.354Z,11.00
2023-05-02T02:00:16.953Z,11.00
2023-05-02T02:02:47.660Z,11.00
2023-05-02T02:05:17.026Z,11.00
2023-05-02T02:07:45.430Z,11.00
2023-05-02T02:10:13.931Z,10.90
2023-05-02T02:12:43.729Z,11.00
2023-05-02T02:15:20.714Z,11.00
2023-05-02T02:17:56.306Z,11.00
2023-05-02T02:20:24.357Z,11.00
2023-05-02T02:22:54.104Z,11.00
2023-05-02T02:25:22.159Z,11.00
2023-05-02T02:27:50.226Z,11.00
2023-05-02T02:30:19.454Z,11.00
2023-05-02T02:32:47.354Z,11.00
2023-05-02T02:35:15.486Z,11.20
2023-05-02T02:37:48.492Z,11.00
2023-05-02T02:40:24.346Z,11.00
2023-05-02T02:43:00.152Z,11.00
2023-05-02T02:45:35.282Z,10.90
2023-05-02T02:48:12.180Z,10.90
2023-05-02T02:50:52.592Z,11.00
2023-05-02T02:53:26.410Z,11.00
2023-05-02T02:55:59.224Z,11.00
2023-05-02T02:58:40.579Z,11.00
2023-05-02T03:01:16.020Z,11.00
2023-05-02T03:03:45.332Z,11.00
2023-05-02T03:06:13.346Z,11.00
2023-05-02T03:08:41.549Z,10.90
2023-05-02T03:11:09.604Z,11.00
2023-05-02T03:13:37.810Z,10.90
2023-05-02T03:16:32.498Z,11.00
2023-05-02T03:19:00.464Z,10.90
2023-05-02T03:21:28.410Z,10.90
2023-05-02T03:23:56.389Z,11.30
2023-05-02T03:26:24.224Z,10.90
2023-05-02T03:28:52.196Z,10.90
2023-05-02T03:31:20.273Z,10.90
2023-05-02T03:33:49.831Z,10.90
2023-05-02T03:36:18.109Z,10.90
2023-05-02T03:38:45.998Z,10.80
2023-05-02T03:41:13.857Z,10.80
2023-05-02T03:43:41.725Z,10.80
2023-05-02T03:46:11.720Z,10.80
2023-05-02T03:48:39.773Z,10.70
2023-05-02T03:51:09.900Z,10.70
2023-05-02T03:53:37.818Z,10.60
2023-05-02T03:56:07.925Z,10.60
2023-05-02T03:58:36.929Z,10.60
2023-05-02T04:01:04.803Z,10.50
2023-05-02T04:03:33.205Z,10.50
2023-05-02T04:06:01.187Z,10.40
2023-05-02T04:08:30.434Z,10.40
2023-05-02T04:10:58.308Z,10.30
2023-05-02T04:13:26.250Z,10.30
2023-05-02T04:15:54.121Z,10.20
2023-05-02T04:18:22.037Z,10.50
2023-05-02T04:20:50.149Z,10.30
2023-05-02T04:23:18.546Z,10.30
2023-05-02T04:25:54.457Z,10.30
2023-05-02T04:28:22.792Z,10.20
2023-05-02T04:30:51.035Z,10.30
2023-05-02T04:33:19.432Z,10.30
2023-05-02T04:35:47.299Z,10.30
2023-05-02T04:38:15.601Z,10.30
2023-05-02T04:40:43.638Z,10.30
2023-05-02T04:43:12.852Z,10.30
2023-05-02T04:45:40.695Z,10.40
2023-05-02T04:48:08.596Z,10.30
2023-05-02T04:50:36.459Z,10.30
2023-05-02T04:53:04.489Z,10.10
2023-05-02T04:55:32.341Z,9.70
2023-05-02T04:58:00.220Z,9.50
2023-05-02T05:00:30.193Z,9.30
2023-05-02T05:03:00.170Z,9.10
2023-05-02T05:05:29.620Z,9.00
2023-05-02T05:07:57.766Z,8.90
2023-05-02T05:10:25.766Z,8.90
2023-05-02T05:12:54.104Z,8.80
2023-05-02T05:15:23.924Z,8.70
2023-05-02T05:17:53.386Z,8.70
2023-05-02T05:20:21.249Z,8.40
2023-05-02T05:22:49.184Z,8.50
2023-05-02T05:25:17.244Z,8.40
2023-05-02T05:27:45.096Z,8.50
2023-05-02T05:30:13.504Z,8.40
2023-05-02T05:32:41.412Z,8.30
2023-05-02T05:35:12.067Z,8.30
2023-05-02T05:37:40.355Z,8.20
2023-05-02T05:40:09.482Z,8.20
2023-05-02T05:42:37.392Z,8.20
2023-05-02T05:45:05.795Z,8.20
2023-05-02T05:47:33.858Z,8.20
2023-05-02T05:50:02.227Z,8.10
2023-05-02T05:52:31.749Z,8.20
2023-05-02T05:54:59.730Z,8.20
2023-05-02T05:57:27.799Z,8.20
2023-05-02T05:59:55.907Z,8.10
2023-05-02T06:02:23.831Z,8.20
2023-05-02T06:04:51.952Z,8.00
2023-05-02T06:07:19.881Z,8.10
2023-05-02T06:09:49.499Z,8.20
2023-05-02T06:12:17.555Z,8.20
2023-05-02T06:14:45.420Z,8.60
2023-05-02T06:17:13.387Z,8.50
2023-05-02T06:19:41.261Z,8.50
2023-05-02T06:22:09.126Z,8.50
2023-05-02T06:24:37.783Z,8.60
2023-05-02T06:27:07.044Z,8.50
2023-05-02T06:29:35.087Z,8.50
2023-05-02T06:32:04.082Z,8.90
2023-05-02T06:34:33.204Z,9.20
2023-05-02T06:37:01.104Z,9.20
2023-05-02T06:39:29.278Z,9.40
2023-05-02T06:41:58.760Z,9.50
2023-05-02T06:44:28.002Z,9.80
2023-05-02T06:46:56.480Z,10.20
2023-05-02T06:49:24.467Z,10.40
2023-05-02T06:51:52.482Z,10.40
2023-05-02T06:54:21.764Z,10.60
2023-05-02T06:56:49.721Z,10.30
2023-05-02T06:59:17.646Z,10.20
2023-05-02T07:01:47.053Z,10.20
2023-05-02T07:04:14.968Z,10.30
2023-05-02T07:06:42.954Z,10.10
2023-05-02T07:09:11.021Z,9.90
2023-05-02T07:11:38.863Z,10.10
2023-05-02T07:14:06.676Z,9.90
2023-05-02T07:16:34.754Z,9.90
2023-05-02T07:19:04.700Z,10.10
2023-05-02T07:21:32.578Z,10.00
2023-05-02T07:24:00.775Z,10.20
2023-05-02T07:26:29.598Z,10.10
2023-05-02T07:28:57.459Z,10.30
2023-05-02T07:31:25.477Z,10.30
2023-05-02T07:33:53.414Z,10.30
2023-05-02T07:36:22.704Z,11.00
2023-05-02T07:38:51.044Z,10.40
2023-05-02T07:41:18.924Z,10.40
2023-05-02T07:43:46.942Z,10.20
2023-05-02T07:46:14.991Z,10.30
2023-05-02T07:48:42.972Z,10.00
2023-05-02T07:51:12.127Z,10.10
2023-05-02T07:53:41.432Z,9.90
2023-05-02T07:56:09.565Z,10.00
2023-05-02T07:58:37.931Z,11.00
2023-05-02T08:01:06.189Z,10.10
2023-05-02T08:03:34.306Z,9.70
2023-05-02T08:06:03.075Z,9.40
2023-05-02T08:08:31.061Z,9.70
2023-05-02T08:11:00.267Z,9.90
2023-05-02T08:13:28.297Z,11.00
2023-05-02T08:15:57.941Z,11.00
2023-05-02T08:18:26.051Z,10.20
2023-05-02T08:20:54.108Z,11.70
2023-05-02T08:23:22.196Z,10.80
2023-05-02T08:25:50.051Z,10.60
2023-05-02T08:28:19.739Z,10.70
2023-05-02T08:30:47.822Z,10.50
2023-05-02T08:33:16.063Z,10.30
2023-05-02T08:35:43.977Z,10.40
2023-05-02T08:38:11.882Z,10.30
2023-05-02T08:40:42.631Z,10.60
2023-05-02T08:43:12.861Z,10.30
2023-05-02T08:45:43.687Z,9.90
2023-05-02T08:48:13.309Z,10.10
2023-05-02T08:50:43.462Z,10.00
2023-05-02T08:53:13.557Z,10.00
2023-05-02T08:55:43.012Z,10.00
2023-05-02T08:58:13.922Z,10.00
2023-05-02T09:00:46.007Z,10.40
2023-05-02T09:03:24.910Z,9.90
2023-05-02T09:05:55.208Z,9.70
2023-05-02T09:08:24.203Z,9.60
2023-05-02T09:10:52.561Z,9.50
2023-05-02T09:13:30.693Z,9.60
2023-05-02T09:16:00.880Z,9.60
2023-05-02T09:18:31.255Z,9.60
2023-05-02T09:21:06.367Z,9.60
2023-05-02T09:23:39.402Z,9.60
2023-05-02T09:26:15.697Z,9.90
2023-05-02T09:28:45.402Z,10.40
2023-05-02T09:31:22.899Z,10.00
2023-05-02T09:34:09.787Z,10.00
2023-05-02T09:36:42.132Z,10.00
2023-05-02T09:39:13.407Z,10.10
2023-05-02T09:41:41.919Z,10.20
2023-05-02T09:44:11.659Z,11.30
2023-05-02T09:46:45.256Z,10.50
2023-05-02T09:49:14.605Z,9.90
2023-05-02T09:51:43.994Z,10.50
2023-05-02T09:54:12.172Z,10.40
2023-05-02T09:56:54.133Z,10.60
2023-05-02T09:59:21.991Z,10.60
2023-05-02T10:01:57.122Z,10.80
2023-05-02T10:04:27.294Z,10.80
2023-05-02T10:06:56.243Z,10.90
2023-05-02T10:09:24.977Z,10.80
2023-05-02T10:11:54.593Z,11.10
2023-05-02T10:14:24.659Z,11.10
2023-05-02T10:17:01.024Z,11.30
2023-05-02T10:19:34.567Z,11.30
2023-05-02T10:22:03.967Z,11.50
2023-05-02T10:24:33.843Z,11.80
2023-05-02T10:27:03.100Z,12.20
2023-05-02T10:29:32.377Z,12.20
2023-05-02T10:32:04.238Z,12.40
2023-05-02T10:34:34.470Z,12.80
2023-05-02T10:37:02.508Z,12.90
2023-05-02T10:39:32.810Z,13.10
2023-05-02T10:42:03.098Z,13.00
2023-05-02T10:44:35.317Z,13.20
2023-05-02T10:47:19.970Z,13.20
2023-05-02T10:49:52.136Z,13.70
2023-05-02T10:52:31.615Z,13.80
2023-05-02T10:55:15.874Z,13.90
2023-05-02T10:58:20.947Z,13.80
2023-05-02T11:00:49.401Z,13.80
2023-05-02T11:03:58.205Z,13.80
2023-05-02T11:06:27.376Z,13.60
2023-05-02T11:09:32.087Z,13.50
2023-05-02T11:12:01.926Z,13.40
2023-05-02T11:14:53.868Z,13.80
2023-05-02T11:17:22.532Z,14.40
2023-05-02T11:20:30.339Z,14.90
2023-05-02T11:23:02.376Z,15.00
2023-05-02T11:25:35.698Z,15.00
2023-05-02T11:28:05.476Z,15.00
2023-05-02T11:30:44.662Z,15.20
2023-05-02T11:33:16.072Z,15.60
2023-05-02T11:35:46.803Z,15.90
2023-05-02T11:38:18.303Z,16.20
2023-05-02T11:40:57.500Z,16.10
2023-05-02T11:43:27.164Z,15.90
2023-05-02T11:45:57.269Z,15.60
2023-05-02T11:48:27.214Z,14.80
2023-05-02T11:50:56.905Z,15.40
2023-05-02T11:53:28.808Z,15.70
2023-05-02T11:55:59.022Z,16.20
2023-05-02T11:58:29.676Z,16.90
2023-05-02T12:00:58.023Z,16.90
2023-05-02T12:03:29.774Z,16.10
2023-05-02T12:05:58.509Z,15.20
2023-05-02T12:08:29.774Z,14.30
2023-05-02T12:10:58.200Z,14.90
2023-05-02T12:13:27.330Z,14.50
2023-05-02T12:15:56.565Z,14.40
2023-05-02T12:18:26.972Z,14.10
2023-05-02T12:20:56.569Z,13.70
2023-05-02T12:23:26.264Z,13.80
2023-05-02T12:25:55.567Z,13.60
2023-05-02T12:28:24.298Z,13.60
2023-05-02T12:30:52.804Z,13.60
2023-05-02T12:33:20.770Z,13.70
2023-05-02T12:35:48.918Z,14.10
2023-05-02T12:38:18.188Z,14.10
2023-05-02T12:40:51.684Z,14.30
2023-05-02T12:43:22.224Z,14.50
2023-05-02T12:45:50.824Z,14.70
2023-05-02T12:48:23.346Z,14.70
2023-05-02T12:50:51.654Z,14.60
2023-05-02T12:53:38.317Z,14.40
2023-05-02T12:56:07.001Z,14.20
2023-05-02T12:58:43.917Z,14.10
2023-05-02T13:01:12.379Z,14.20
2023-05-02T13:03:40.492Z,14.10
2023-05-02T13:06:08.712Z,14.00
2023-05-02T13:08:37.486Z,13.90
2023-05-02T13:11:05.736Z,13.60
2023-05-02T13:13:35.094Z,13.30
2023-05-02T13:16:04.926Z,13.00
2023-05-02T13:18:33.045Z,12.90
2023-05-02T13:21:00.977Z,13.10
2023-05-02T13:23:28.788Z,13.40
2023-05-02T13:25:56.664Z,13.60
2023-05-02T13:28:25.822Z,13.50
2023-05-02T13:30:53.710Z,13.40
2023-05-02T13:33:23.083Z,13.50
2023-05-02T13:35:50.910Z,13.40
2023-05-02T13:38:18.750Z,13.50
2023-05-02T13:40:46.668Z,13.80
2023-05-02T13:43:14.542Z,14.10
2023-05-02T13:45:42.483Z,14.40
2023-05-02T13:48:17.475Z,14.50
2023-05-02T13:50:46.705Z,14.60
2023-05-02T13:53:14.562Z,15.40
2023-05-02T13:55:42.486Z,14.90
2023-05-02T13:58:10.360Z,15.10
2023-05-02T14:00:38.211Z,15.00
2023-05-02T14:03:06.765Z,15.00
2023-05-02T14:05:36.494Z,14.90
2023-05-02T14:08:06.169Z,14.80
2023-05-02T14:10:34.008Z,14.70
2023-05-02T14:13:01.856Z,14.70
2023-05-02T14:15:29.732Z,14.70
2023-05-02T14:17:57.611Z,15.40
2023-05-02T14:20:25.961Z,14.70
2023-05-02T14:22:53.813Z,14.70
2023-05-02T14:25:23.057Z,14.80
2023-05-02T14:27:50.886Z,16.00
2023-05-02T14:30:19.253Z,14.60
2023-05-02T14:32:47.198Z,14.60
2023-05-02T14:35:15.353Z,14.90
2023-05-02T14:37:45.140Z,14.50
2023-05-02T14:40:13.948Z,14.40
2023-05-02T14:42:43.865Z,14.20
2023-05-02T14:45:12.305Z,14.00
2023-05-02T14:47:40.523Z,13.90
2023-05-02T14:50:09.226Z,13.60
2023-05-02T14:52:37.117Z,13.50
2023-05-02T14:55:05.509Z,13.50
2023-05-02T14:57:33.979Z,13.50
2023-05-02T15:00:04.430Z,13.40
2023-05-02T15:02:32.716Z,13.30
2023-05-02T15:05:01.368Z,13.30
2023-05-02T15:07:29.357Z,13.10
2023-05-02T15:09:57.201Z,12.90
2023-05-02T15:12:26.199Z,12.80
2023-05-02T15:14:54.336Z,12.70
2023-05-02T15:17:23.603Z,12.50
2023-05-02T15:19:51.493Z,12.50
2023-05-02T15:22:19.407Z,12.50
2023-05-02T15:24:47.282Z,12.40
2023-05-02T15:27:15.244Z,12.40
2023-05-02T15:29:43.161Z,12.30
2023-05-02T15:32:11.171Z,12.40
2023-05-02T15:34:40.430Z,12.40
2023-05-02T15:37:08.415Z,12.80
2023-05-02T15:39:36.324Z,12.80
2023-05-02T15:42:04.859Z,13.80
2023-05-02T15:44:35.780Z,12.50
2023-05-02T15:47:03.645Z,12.50
2023-05-02T15:49:33.285Z,12.50
2023-05-02T15:52:04.091Z,12.90
2023-05-02T15:54:32.736Z,12.40
2023-05-02T15:57:00.800Z,13.30
2023-05-02T15:59:28.728Z,12.50
2023-05-02T16:01:56.698Z,12.50
2023-05-02T16:04:25.179Z,12.50
2023-05-02T16:06:53.197Z,12.50
2023-05-02T16:09:22.454Z,12.40
2023-05-02T16:11:50.332Z,12.20
2023-05-02T16:14:18.262Z,12.00
2023-05-02T16:16:46.120Z,11.90
2023-05-02T16:19:14.086Z,11.80
2023-05-02T16:21:42.913Z,11.70
2023-05-02T16:24:10.981Z,11.60
2023-05-02T16:26:40.525Z,11.70
2023-05-02T16:29:08.512Z,11.60
2023-05-02T16:31:36.598Z,13.40
2023-05-02T16:34:04.579Z,11.50
2023-05-02T16:36:33.223Z,11.70
2023-05-02T16:39:01.059Z,11.40
2023-05-02T16:41:28.950Z,11.30
2023-05-02T16:43:58.177Z,11.30
2023-05-02T16:46:26.676Z,11.20
2023-05-02T16:48:54.612Z,11.30
2023-05-02T16:51:22.759Z,11.20
2023-05-02T16:53:50.879Z,11.20
2023-05-02T16:56:18.858Z,11.30
2023-05-02T16:58:46.781Z,11.30
2023-05-02T17:01:17.152Z,11.30
2023-05-02T17:03:45.193Z,11.90
2023-05-02T17:06:13.127Z,11.20
2023-05-02T17:08:41.071Z,11.20
2023-05-02T17:11:08.986Z,11.10
2023-05-02T17:13:36.887Z,11.00
2023-05-02T17:16:05.468Z,10.90
2023-05-02T17:18:35.032Z,11.00
2023-05-02T17:21:04.019Z,10.70
2023-05-02T17:23:32.258Z,10.80
2023-05-02T17:26:00.533Z,10.80
2023-05-02T17:28:28.554Z,10.70
2023-05-02T17:30:59.301Z,10.50
2023-05-02T17:33:27.420Z,10.40
2023-05-02T17:35:57.139Z,10.30
2023-05-02T17:38:26.578Z,10.20
2023-05-02T17:40:54.594Z,10.20
2023-05-02T17:43:22.503Z,10.20
2023-05-02T17:45:50.699Z,10.20
2023-05-02T17:48:18.945Z,10.10
2023-05-02T17:50:48.180Z,10.10
2023-05-02T17:53:17.777Z,10.10
2023-05-02T17:55:45.873Z,10.00
2023-05-02T17:58:14.051Z,10.00
2023-05-02T18:00:41.881Z,10.00
2023-05-02T18:03:09.815Z,9.90
2023-05-02T18:05:43.972Z,9.90
2023-05-02T18:08:11.938Z,10.00
2023-05-02T18:10:42.658Z,10.00
2023-05-02T18:13:10.632Z,10.00
2023-05-02T18:15:38.617Z,9.90
2023-05-02T18:18:06.743Z,10.00
2023-05-02T18:20:39.463Z,10.00
2023-05-02T18:23:07.862Z,11.40
2023-05-02T18:25:35.850Z,11.80
2023-05-02T18:28:05.394Z,9.90
2023-05-02T18:30:36.703Z,9.90
2023-05-02T18:33:04.914Z,9.80
2023-05-02T18:35:33.200Z,10.00
2023-05-02T18:38:01.514Z,9.80
2023-05-02T18:40:29.567Z,9.80
2023-05-02T18:42:57.555Z,9.80
2023-05-02T18:45:26.777Z,10.60
2023-05-02T18:47:54.784Z,9.50
2023-05-02T18:50:23.035Z,9.70
2023-05-02T18:52:50.975Z,9.70
2023-05-02T18:55:19.018Z,9.70
2023-05-02T18:57:46.957Z,9.60
2023-05-02T19:00:15.362Z,9.60
2023-05-02T19:02:48.043Z,9.50
2023-05-02T19:05:16.228Z,10.80
2023-05-02T19:07:44.701Z,9.40
2023-05-02T19:10:12.630Z,9.10
2023-05-02T19:12:41.937Z,9.30
2023-05-02T19:15:11.231Z,9.10
2023-05-02T19:17:39.228Z,9.20
2023-05-02T19:20:10.632Z,9.20
2023-05-02T19:22:38.582Z,9.20
2023-05-02T19:25:09.508Z,9.10
2023-05-02T19:27:37.736Z,9.00
2023-05-02T19:30:09.144Z,9.10
2023-05-02T19:32:37.160Z,9.00
2023-05-02T19:35:05.736Z,9.00
2023-05-02T19:37:34.932Z,9.00
2023-05-02T19:40:02.948Z,8.90
2023-05-02T19:42:30.835Z,9.00
2023-05-02T19:44:58.749Z,8.90
2023-05-02T19:47:27.268Z,8.90
2023-05-02T19:49:55.184Z,8.90
2023-05-02T19:52:23.123Z,8.80
2023-05-02T19:54:53.246Z,8.80
2023-05-02T19:57:21.423Z,8.70
2023-05-02T19:59:49.251Z,8.10
2023-05-02T20:02:17.157Z,8.60
2023-05-02T20:04:45.037Z,8.20
2023-05-02T20:07:12.916Z,8.50
2023-05-02T20:09:40.745Z,8.50
2023-05-02T20:12:10.029Z,8.30
2023-05-02T20:14:37.909Z,8.10
2023-05-02T20:17:06.015Z,8.20
2023-05-02T20:19:33.968Z,8.00
2023-05-02T20:22:01.962Z,8.20
2023-05-02T20:24:29.818Z,8.40
2023-05-02T20:26:57.676Z,7.80
2023-05-02T20:29:26.899Z,7.40
2023-05-02T20:31:56.512Z,7.80
2023-05-02T20:34:24.626Z,7.50
2023-05-02T20:36:52.697Z,7.40
2023-05-02T20:39:21.685Z,7.20
2023-05-02T20:41:49.991Z,7.40
2023-05-02T20:44:18.562Z,6.90
2023-05-02T20:46:47.789Z,7.10
2023-05-02T20:49:15.983Z,8.00
2023-05-02T20:51:43.832Z,8.80
2023-05-02T20:54:11.685Z,7.00
2023-05-02T20:56:39.544Z,7.90
2023-05-02T20:59:07.433Z,8.00
2023-05-02T21:01:35.359Z,6.60
2023-05-02T21:04:04.790Z,6.30
2023-05-02T21:06:32.752Z,6.80
2023-05-02T21:09:01.878Z,7.10
2023-05-02T21:11:29.842Z,6.80
2023-05-02T21:13:57.721Z,7.00
2023-05-02T21:16:25.782Z,7.00
2023-05-02T21:18:55.085Z,6.60
2023-05-02T21:21:24.328Z,8.20
2023-05-02T21:23:52.251Z,6.90
2023-05-02T21:26:20.107Z,7.70
2023-05-02T21:28:47.964Z,7.20
2023-05-02T21:31:17.029Z,6.90
2023-05-02T21:33:45.247Z,7.40
2023-05-02T21:36:13.122Z,8.00
2023-05-02T21:38:42.502Z,8.10
2023-05-02T21:41:10.392Z,6.80
2023-05-02T21:43:40.694Z,7.70
2023-05-02T21:46:10.913Z,6.50
2023-05-02T21:48:38.855Z,6.80
2023-05-02T21:51:09.793Z,8.00
2023-05-02T21:53:37.911Z,6.70
2023-05-02T21:56:08.285Z,6.70
2023-05-02T21:58:36.199Z,6.70
2023-05-02T22:01:04.311Z,7.40
2023-05-02T22:03:34.536Z,6.30
2023-05-02T22:06:06.373Z,6.90
2023-05-02T22:08:34.872Z,6.60
2023-05-02T22:11:09.142Z,6.40
2023-05-02T22:13:37.148Z,7.70
2023-05-02T22:16:05.616Z,6.50
2023-05-02T22:18:33.503Z,6.40
2023-05-02T22:21:01.532Z,6.30
2023-05-02T22:23:30.927Z,7.20
2023-05-02T22:25:59.182Z,7.70
2023-05-02T22:28:28.474Z,6.20
2023-05-02T22:30:56.365Z,6.10
2023-05-02T22:33:24.230Z,5.80
2023-05-02T22:35:52.199Z,5.80
2023-05-02T22:38:21.084Z,6.40
2023-05-02T22:40:48.933Z,7.40
2023-05-02T22:43:17.688Z,5.70
2023-05-02T22:45:47.226Z,6.70
2023-05-02T22:48:15.088Z,7.20
2023-05-02T22:50:43.643Z,6.30
2023-05-02T22:53:11.555Z,5.90
2023-05-02T22:55:39.651Z,6.30
2023-05-02T22:58:07.526Z,4.80
2023-05-02T23:00:35.409Z,4.80
2023-05-02T23:03:04.801Z,4.70
2023-05-02T23:05:32.740Z,4.90
2023-05-02T23:08:00.725Z,4.50
2023-05-02T23:10:28.661Z,6.00
2023-05-02T23:12:56.625Z,4.50
2023-05-02T23:15:24.510Z,4.30
2023-05-02T23:17:52.474Z,4.20
2023-05-02T23:20:24.063Z,4.10
2023-05-02T23:22:52.044Z,4.20
2023-05-02T23:25:20.839Z,3.80
2023-05-02T23:27:48.748Z,3.70
2023-05-02T23:30:16.628Z,3.80
2023-05-02T23:32:44.840Z,3.60
2023-05-02T23:35:13.193Z,3.60
2023-05-02T23:37:42.521Z,3.60
2023-05-02T23:40:11.013Z,3.50
2023-05-02T23:42:40.289Z,3.70
2023-05-02T23:45:09.335Z,3.40
2023-05-02T23:47:37.761Z,3.50
2023-05-02T23:50:06.253Z,3.30
2023-05-02T23:52:34.255Z,3.40
2023-05-02T23:55:04.054Z,3.10
2023-05-02T23:57:31.972Z,3.10
2023-05-02T23:59:59.810Z,3.00
